createdAt,value
2023-03-06T00:00:27.248Z,99937.75
2023-03-06T00:05:21.009Z,99916.38
2023-03-06T00:10:26.830Z,99939.66
2023-03-06T00:15:21.788Z,99923.50
2023-03-06T00:20:15.512Z,99939.53
2023-03-06T00:25:13.622Z,99921.31
2023-03-06T00:30:06.806Z,99893.75
2023-03-06T00:35:00.893Z,99921.44
2023-03-06T00:39:55.459Z,99930.13
2023-03-06T00:44:48.106Z,99916.72
2023-03-06T00:49:42.029Z,99934.84
2023-03-06T00:54:34.723Z,99908.34
2023-03-06T00:59:28.318Z,99902.22
2023-03-06T01:04:26.404Z,99935.69
2023-03-06T01:09:18.994Z,99924.09
2023-03-06T01:14:12.154Z,99897.78
2023-03-06T01:19:05.569Z,99901.91
2023-03-06T01:23:58.533Z,99879.56
2023-03-06T01:28:51.462Z,99896.47
2023-03-06T01:33:43.448Z,99877.53
2023-03-06T01:38:37.006Z,99862.81
2023-03-06T01:43:32.977Z,99879.34
2023-03-06T01:48:26.083Z,99857.16
2023-03-06T01:53:20.051Z,99880.09
2023-03-06T01:58:18.492Z,99872.81
2023-03-06T02:03:17.992Z,99870.19
2023-03-06T02:08:12.785Z,99850.53
2023-03-06T02:13:07.056Z,99844.34
2023-03-06T02:18:02.128Z,99862.56
2023-03-06T02:23:08.390Z,99854.16
2023-03-06T02:28:01.552Z,99856.81
2023-03-06T02:32:55.306Z,99840.88
2023-03-06T02:37:48.782Z,99855.94
2023-03-06T02:42:53.756Z,99859.31
2023-03-06T02:47:47.817Z,99868.13
2023-03-06T02:52:40.597Z,99851.38
2023-03-06T02:57:33.638Z,99852.31
2023-03-06T03:02:26.658Z,99841.34
2023-03-06T03:07:20.553Z,99813.38
2023-03-06T03:12:13.575Z,99836.41
2023-03-06T03:17:07.196Z,99834.72
2023-03-06T03:21:59.287Z,99846.19
2023-03-06T03:26:52.330Z,99846.19
2023-03-06T03:31:47.248Z,99847.03
2023-03-06T03:36:39.764Z,99842.44
2023-03-06T03:41:34.618Z,99797.81
2023-03-06T03:46:29.713Z,99825.78
2023-03-06T03:51:23.308Z,99825.78
2023-03-06T03:56:19.033Z,99820.47
2023-03-06T04:01:21.330Z,99828.56
2023-03-06T04:06:15.099Z,99814.44
2023-03-06T04:11:08.555Z,99816.41
2023-03-06T04:16:01.318Z,99821.94
2023-03-06T04:20:57.346Z,99824.81
2023-03-06T04:25:51.800Z,99821.56
2023-03-06T04:30:44.653Z,99838.31
2023-03-06T04:35:38.339Z,99796.22
2023-03-06T04:40:37.443Z,99827.09
2023-03-06T04:45:32.982Z,99795.38
2023-03-06T04:50:26.729Z,99824.34
2023-03-06T04:55:20.712Z,99791.63
2023-03-06T05:00:19.600Z,99806.75
2023-03-06T05:05:13.584Z,99794.31
2023-03-06T05:10:06.693Z,99776.66
2023-03-06T05:15:00.217Z,99792.75
2023-03-06T05:19:57.152Z,99777.41
2023-03-06T05:24:50.292Z,99815.31
2023-03-06T05:29:43.164Z,99772.03
2023-03-06T05:34:35.750Z,99784.28
2023-03-06T05:39:29.767Z,99772.50
2023-03-06T05:44:24.293Z,99787.66
2023-03-06T05:49:17.431Z,99748.34
2023-03-06T05:54:11.496Z,99783.59
2023-03-06T05:59:04.967Z,99794.06
2023-03-06T06:03:59.221Z,99796.50
2023-03-06T06:08:52.596Z,99771.53
2023-03-06T06:13:46.465Z,99760.31
2023-03-06T06:18:41.311Z,99766.44
2023-03-06T06:23:34.134Z,99773.44
2023-03-06T06:28:28.820Z,99777.66
2023-03-06T06:33:22.303Z,99801.44
2023-03-06T06:38:15.812Z,99794.66
2023-03-06T06:43:08.949Z,99786.63
2023-03-06T06:48:02.817Z,99793.72
2023-03-06T06:52:56.330Z,99802.25
2023-03-06T06:57:49.674Z,99790.56
2023-03-06T07:02:41.755Z,99795.25
2023-03-06T07:07:35.893Z,99787.44
2023-03-06T07:12:28.323Z,99813.97
2023-03-06T07:17:21.779Z,99799.16
2023-03-06T07:22:14.960Z,99766.06
2023-03-06T07:27:08.757Z,99797.69
2023-03-06T07:32:01.967Z,99771.50
2023-03-06T07:36:54.936Z,99756.94
2023-03-06T07:41:48.599Z,99793.66
2023-03-06T07:46:42.113Z,99806.50
2023-03-06T07:51:35.239Z,99807.56
2023-03-06T07:56:27.748Z,99791.88
2023-03-06T08:01:24.005Z,99818.84
2023-03-06T08:06:19.890Z,99788.56
2023-03-06T08:11:13.295Z,99799.94
2023-03-06T08:16:09.229Z,99819.56
2023-03-06T08:21:07.523Z,99794.84
2023-03-06T08:26:01.309Z,99800.44
2023-03-06T08:30:55.014Z,99810.53
2023-03-06T08:35:47.869Z,99819.00
2023-03-06T08:40:40.375Z,99802.34
2023-03-06T08:45:33.289Z,99815.25
2023-03-06T08:50:26.158Z,99787.03
2023-03-06T08:55:19.276Z,99786.56
2023-03-06T09:00:13.312Z,99780.31
2023-03-06T09:05:08.025Z,99814.44
2023-03-06T09:10:01.956Z,99796.69
2023-03-06T09:14:54.478Z,99786.31
2023-03-06T09:19:46.672Z,99793.91
2023-03-06T09:24:39.230Z,99760.25
2023-03-06T09:29:32.294Z,99792.22
2023-03-06T09:34:27.784Z,99760.34
2023-03-06T09:39:20.942Z,99796.19
2023-03-06T09:44:20.588Z,99775.50
2023-03-06T09:49:23.499Z,99801.81
2023-03-06T09:54:17.108Z,99785.69
2023-03-06T09:59:21.067Z,99810.78
2023-03-06T10:04:36.694Z,99788.63
2023-03-06T10:10:00.600Z,99788.13
2023-03-06T10:15:07.285Z,99758.47
2023-03-06T10:20:00.666Z,99779.78
2023-03-06T10:25:24.148Z,99781.84
2023-03-06T10:30:35.376Z,99768.59
2023-03-06T10:35:45.745Z,99775.81
2023-03-06T10:40:49.796Z,99770.28
2023-03-06T10:45:51.408Z,99757.16
2023-03-06T10:50:45.356Z,99744.00
2023-03-06T10:55:39.445Z,99732.69
2023-03-06T11:00:38.095Z,99761.00
2023-03-06T11:05:31.728Z,99747.38
2023-03-06T11:10:25.550Z,99707.97
2023-03-06T11:15:22.909Z,99738.09
2023-03-06T11:20:48.504Z,99759.19
2023-03-06T11:25:50.764Z,99721.22
2023-03-06T11:30:48.934Z,99693.97
2023-03-06T11:35:57.172Z,99715.78
2023-03-06T11:41:02.543Z,99700.97
2023-03-06T11:46:06.289Z,99693.88
2023-03-06T11:51:20.367Z,99683.28
2023-03-06T11:56:18.744Z,99680.63
2023-03-06T12:01:26.527Z,99690.72
2023-03-06T12:06:37.012Z,99667.00
2023-03-06T12:11:39.494Z,99649.28
2023-03-06T12:16:36.040Z,99638.44
2023-03-06T12:21:31.101Z,99589.19
2023-03-06T12:26:45.382Z,99617.59
2023-03-06T12:32:22.342Z,99629.03
2023-03-06T12:37:21.384Z,99644.81
2023-03-06T12:42:26.781Z,99616.34
2023-03-06T12:47:24.039Z,99625.16
2023-03-06T12:52:30.519Z,99608.06
2023-03-06T12:57:24.949Z,99613.00
2023-03-06T13:02:55.916Z,99615.75
2023-03-06T13:08:03.622Z,99575.28
2023-03-06T13:13:34.223Z,99613.81
2023-03-06T13:18:27.301Z,99587.06
2023-03-06T13:23:36.146Z,99606.31
2023-03-06T13:28:55.041Z,99589.47
2023-03-06T13:33:47.019Z,99593.91
2023-03-06T13:38:42.848Z,99588.47
2023-03-06T13:43:44.428Z,99582.22
2023-03-06T13:48:46.239Z,99592.00
2023-03-06T13:53:59.459Z,99588.47
2023-03-06T13:59:00.951Z,99582.34
2023-03-06T14:04:12.729Z,99567.25
2023-03-06T14:09:09.225Z,99556.44
2023-03-06T14:14:02.775Z,99564.84
2023-03-06T14:18:57.295Z,99576.19
2023-03-06T14:24:05.190Z,99538.84
2023-03-06T14:29:03.014Z,99559.56
2023-03-06T14:33:59.963Z,99551.34
2023-03-06T14:38:58.986Z,99519.34
2023-03-06T14:43:52.414Z,99548.69
2023-03-06T14:48:46.874Z,99529.22
2023-03-06T14:53:41.095Z,99516.91
2023-03-06T14:58:53.053Z,99525.78
2023-03-06T15:03:55.573Z,99538.22
2023-03-06T15:08:56.598Z,99526.75
2023-03-06T15:14:03.984Z,99510.59
2023-03-06T15:19:02.768Z,99521.34
2023-03-06T15:23:57.345Z,99507.59
2023-03-06T15:29:07.030Z,99516.16
2023-03-06T15:34:06.449Z,99504.13
2023-03-06T15:39:01.430Z,99487.78
2023-03-06T15:43:55.719Z,99505.91
2023-03-06T15:49:03.147Z,99514.97
2023-03-06T15:54:09.848Z,99511.13
2023-03-06T15:59:11.138Z,99487.28
2023-03-06T16:04:04.264Z,99502.59
2023-03-06T16:08:57.223Z,99458.41
2023-03-06T16:13:50.571Z,99502.19
2023-03-06T16:18:43.944Z,99478.25
2023-03-06T16:23:38.874Z,99482.72
2023-03-06T16:28:33.702Z,99500.03
2023-03-06T16:33:26.757Z,99508.91
2023-03-06T16:38:20.180Z,99466.56
2023-03-06T16:43:18.761Z,99504.09
2023-03-06T16:48:16.075Z,99470.56
2023-03-06T16:53:09.069Z,99520.81
2023-03-06T16:58:01.464Z,99522.00
2023-03-06T17:02:54.625Z,99485.91
2023-03-06T17:07:47.594Z,99515.03
2023-03-06T17:12:40.237Z,99525.91
2023-03-06T17:17:33.749Z,99508.00
2023-03-06T17:22:27.687Z,99538.69
2023-03-06T17:27:23.518Z,99531.84
2023-03-06T17:32:17.325Z,99515.69
2023-03-06T17:37:10.706Z,99551.72
2023-03-06T17:42:04.083Z,99538.72
2023-03-06T17:46:56.948Z,99540.88
2023-03-06T17:51:50.283Z,99526.53
2023-03-06T17:56:43.575Z,99553.28
2023-03-06T18:01:35.867Z,99557.13
2023-03-06T18:06:30.695Z,99579.50
2023-03-06T18:11:24.044Z,99558.94
2023-03-06T18:16:20.755Z,99575.53
2023-03-06T18:21:15.274Z,99558.88
2023-03-06T18:26:12.086Z,99560.31
2023-03-06T18:31:09.258Z,99573.91
2023-03-06T18:36:06.640Z,99533.03
2023-03-06T18:41:00.046Z,99573.50
2023-03-06T18:45:57.441Z,99571.09
2023-03-06T18:50:51.069Z,99581.91
2023-03-06T18:55:53.038Z,99571.63
2023-03-06T19:00:45.981Z,99568.53
2023-03-06T19:05:42.957Z,99575.06
2023-03-06T19:10:38.319Z,99570.81
2023-03-06T19:15:31.253Z,99571.59
2023-03-06T19:20:25.272Z,99575.56
2023-03-06T19:25:18.402Z,99558.91
2023-03-06T19:30:15.094Z,99577.03
2023-03-06T19:35:11.349Z,99573.50
2023-03-06T19:40:05.908Z,99577.25
2023-03-06T19:44:59.209Z,99543.41
2023-03-06T19:49:53.423Z,99575.78
2023-03-06T19:54:49.302Z,99551.56
2023-03-06T19:59:44.726Z,99563.25
2023-03-06T20:04:38.059Z,99549.88
2023-03-06T20:09:32.867Z,99553.00
2023-03-06T20:14:25.164Z,99580.81
2023-03-06T20:19:18.872Z,99592.75
2023-03-06T20:24:17.980Z,99570.31
2023-03-06T20:29:10.653Z,99550.00
2023-03-06T20:34:04.721Z,99569.94
2023-03-06T20:39:00.127Z,99559.22
2023-03-06T20:43:54.178Z,99593.16
2023-03-06T20:48:49.834Z,99588.31
2023-03-06T20:53:44.022Z,99595.31
2023-03-06T20:58:38.141Z,99594.34
2023-03-06T21:03:31.881Z,99591.09
2023-03-06T21:08:24.746Z,99607.53
2023-03-06T21:13:19.414Z,99601.97
2023-03-06T21:18:14.000Z,99585.66
2023-03-06T21:23:07.228Z,99585.56
2023-03-06T21:28:00.942Z,99598.81
2023-03-06T21:32:53.123Z,99573.13
2023-03-06T21:37:47.413Z,99587.28
2023-03-06T21:42:42.213Z,99606.88
2023-03-06T21:47:39.070Z,99624.63
2023-03-06T21:52:33.862Z,99601.22
2023-03-06T21:57:26.301Z,99610.25
2023-03-06T22:02:20.871Z,99616.44
2023-03-06T22:07:14.198Z,99619.19
2023-03-06T22:12:07.590Z,99621.97
2023-03-06T22:17:01.056Z,99620.16
2023-03-06T22:21:54.266Z,99628.00
2023-03-06T22:26:49.755Z,99620.28
2023-03-06T22:31:43.543Z,99615.72
2023-03-06T22:36:37.319Z,99632.59
2023-03-06T22:41:30.653Z,99621.97
2023-03-06T22:46:23.664Z,99597.50
2023-03-06T22:51:19.091Z,99612.47
2023-03-06T22:56:13.722Z,99610.78
2023-03-06T23:01:15.627Z,99633.69
2023-03-06T23:06:17.169Z,99631.41
2023-03-06T23:11:15.704Z,99615.22
2023-03-06T23:16:27.000Z,99636.44
2023-03-06T23:21:39.269Z,99621.75
2023-03-06T23:26:51.402Z,99625.34
2023-03-06T23:31:45.494Z,99644.88
2023-03-06T23:36:38.822Z,99636.44
2023-03-06T23:41:32.269Z,99634.66
2023-03-06T23:46:25.844Z,99666.84
2023-03-06T23:51:21.433Z,99647.28
2023-03-06T23:56:15.349Z,99627.91
